Tampico, Montana
Current Conditions -  °F | °C
As of 1:53 AM on Saturday 20 Dec 2014 (Local Time) from KGGW Reporting Station
Overcast Overcast  
Wind Chill: 23°   Ceiling: 6500
Heat Index: 29°   Visibility: 10mi
Dew Point: 25°   Wind: 6mph
Humidity: 85%   Direction: 130°SE
Pressure: 29.82"   Gusts: NA
Location:  48.3775°N, 106.613°W
Report Text: KGGW 200853Z AUTO 13005KT 10SM BKN065 OVC090 M02/M04 A2982 RMK AO2 SLP121 T10171039 55003
Loading
Personal Weather Stations






























Interactive Weather Map New forecast layout! Learn more

10-Day Weather Forecast

Advertisements
Track Severe Weather on mobile